Time;durP1;ratioP1;P1;durP2;ratioP2;P2;SDS_P1;SDS_P2;PMS_P1;PMS_P2;Temp;Humidity;BMP_temperature;BMP_pressure;BME280_temperature;BME280_humidity;BME280_pressure;Samples;Min_cycle;Max_cycle;Signal;HPM_P1;HPM_P2
2022/01/05 00:02:39;;;;;;;5.10;3.35;;;;;;;2.72;90.31;100029.25;10419777;28;20049;-80
2022/01/05 00:07:40;;;;;;;4.25;2.80;;;;;;;1.57;90.48;99862.97;10419784;28;20037;-81
2022/01/05 00:12:41;;;;;;;7.03;3.08;;;;;;;1.15;90.17;99818.28;10419362;28;20063;-80
2022/01/05 00:17:42;;;;;;;7.70;3.40;;;;;;;2.49;90.52;100078.31;10417188;28;20048;-80
2022/01/05 00:22:43;;;;;;;5.25;3.20;;;;;;;2.40;90.72;100103.47;10419110;28;20041;-81
2022/01/05 00:27:43;;;;;;;5.25;3.17;;;;;;;1.61;91.55;100021.44;10417363;28;20037;-81
2022/01/05 00:32:44;;;;;;;5.47;3.28;;;;;;;0.98;91.99;99928.63;10418430;28;20098;-81
2022/01/05 00:37:45;;;;;;;6.82;3.65;;;;;;;1.76;92.41;100067.41;10416100;28;20048;-80
2022/01/05 00:42:46;;;;;;;7.53;3.35;;;;;;;1.47;92.70;100008.63;10417494;28;20135;-81
2022/01/05 00:47:47;;;;;;;4.45;2.95;;;;;;;1.98;92.97;100103.25;10425008;28;20417;-81
2022/01/05 00:52:48;;;;;;;5.55;2.92;;;;;;;1.75;93.49;100081.47;10435725;28;20570;-80
2022/01/05 00:57:48;;;;;;;5.82;3.10;;;;;;;1.49;93.03;100038.94;10418095;28;20053;-80
2022/01/05 01:02:49;;;;;;;6.75;3.15;;;;;;;1.37;93.77;100039.88;10432835;28;20112;-80
2022/01/05 01:07:50;;;;;;;5.95;3.35;;;;;;;1.82;94.39;100124.56;10432333;28;20095;-80
2022/01/05 01:12:52;;;;;;;5.38;3.03;;;;;;;2.07;94.28;100161.16;10417496;28;20069;-80
2022/01/05 01:17:53;;;;;;;4.47;3.38;;;;;;;1.20;93.87;100032.47;10416056;28;20060;-80
2022/01/05 01:22:53;;;;;;;5.80;3.88;;;;;;;1.99;94.65;100188.75;10432451;28;20073;-80
2022/01/05 01:27:54;;;;;;;5.60;3.40;;;;;;;1.95;94.64;100197.81;10416850;28;20042;-80
2022/01/05 01:32:55;;;;;;;5.18;3.17;;;;;;;2.04;94.69;100189.25;10416238;28;20103;-79
2022/01/05 01:37:56;;;;;;;6.07;3.70;;;;;;;1.13;94.67;100048.63;10415879;28;20033;-80
2022/01/05 01:42:57;;;;;;;5.68;3.80;;;;;;;1.49;94.56;100114.03;10415817;28;20088;-80
2022/01/05 01:47:58;;;;;;;4.72;3.10;;;;;;;0.79;94.86;99999.78;10430765;28;20062;-81
2022/01/05 01:52:59;;;;;;;7.70;3.75;;;;;;;2.35;95.20;100222.75;10415123;28;20045;-81
2022/01/05 01:58:01;;;;;;;8.27;3.78;;;;;;;2.46;95.05;100228.84;10415683;28;20033;-81
2022/01/05 02:03:02;;;;;;;6.20;4.00;;;;;;;1.65;94.76;100098.00;10431070;28;20389;-81
2022/01/05 02:08:03;;;;;;;6.00;3.72;;;;;;;1.79;93.67;100140.50;10413033;28;20038;-81
2022/01/05 02:13:05;;;;;;;6.85;3.92;;;;;;;2.36;93.74;100259.31;10414226;28;20140;-80
2022/01/05 02:23:06;;;;;;;6.63;4.18;;;;;;;1.20;93.97;100088.25;10414228;28;20037;-82
2022/01/05 02:28:07;;;;;;;7.55;5.13;;;;;;;1.49;94.07;100112.22;10413253;28;20041;-81
2022/01/05 02:33:08;;;;;;;9.70;5.45;;;;;;;2.58;93.96;100289.16;10413396;28;20048;-82
2022/01/05 02:38:08;;;;;;;8.88;5.47;;;;;;;2.43;93.69;100264.94;10413874;28;20136;-81
2022/01/05 02:43:09;;;;;;;8.80;5.63;;;;;;;2.47;93.60;100269.00;10414228;28;20046;-81
2022/01/05 02:48:10;;;;;;;9.38;5.75;;;;;;;1.43;93.39;100090.91;10412234;28;20123;-81
2022/01/05 02:53:11;;;;;;;9.98;6.57;;;;;;;1.17;93.57;100044.00;10412327;28;20037;-81
2022/01/05 02:58:12;;;;;;;9.45;5.90;;;;;;;1.87;93.57;100152.19;10412932;28;20049;-82
2022/01/05 03:03:12;;;;;;;10.50;6.07;;;;;;;2.89;93.29;100325.16;10412733;28;20060;-82
2022/01/05 03:08:13;;;;;;;9.60;6.30;;;;;;;2.13;93.52;100195.56;10412941;28;20041;-81
2022/01/05 03:13:14;;;;;;;11.20;7.03;;;;;;;2.60;93.57;100259.22;10443366;28;20043;-81
2022/01/05 03:18:15;;;;;;;13.77;7.63;;;;;;;2.29;93.31;100192.59;10453224;28;20058;-81
2022/01/05 03:23:16;;;;;;;10.57;7.15;;;;;;;3.08;93.97;100316.72;10453111;28;20033;-81
2022/01/05 03:28:16;;;;;;;12.45;7.38;;;;;;;2.84;93.75;100310.72;10451804;28;20131;-82
2022/01/05 03:33:21;;;;;;;10.85;7.40;;;;;;;1.40;93.63;100076.28;10453865;28;20037;-82
2022/01/05 03:38:23;;;;;;;12.68;7.03;;;;;;;3.00;93.99;100316.47;10453138;28;20049;-81
2022/01/05 03:43:24;;;;;;;14.27;7.97;;;;;;;2.38;93.76;100197.13;10453920;28;20125;-81
2022/01/05 03:48:25;;;;;;;11.80;7.75;;;;;;;3.29;93.72;100342.22;10451894;28;20516;-80
2022/01/05 03:53:26;;;;;;;12.57;7.93;;;;;;;2.77;93.72;100255.28;10452223;28;20048;-82
2022/01/05 03:58:27;;;;;;;13.15;7.95;;;;;;;2.31;93.49;100171.53;10452865;28;20044;-82
2022/01/05 04:03:27;;;;;;;10.43;7.35;;;;;;;3.42;93.36;100359.50;10453526;28;20041;-81
2022/01/05 04:08:28;;;;;;;10.77;6.97;;;;;;;3.31;93.33;100342.94;10453546;28;20416;-81
2022/01/05 04:13:29;;;;;;;14.43;7.25;;;;;;;2.25;92.87;100170.22;10455508;28;20041;-80
2022/01/05 04:18:30;;;;;;;12.23;7.53;;;;;;;2.38;92.83;100180.56;10459876;28;20512;-80
2022/01/05 04:23:30;;;;;;;9.20;6.75;;;;;;;3.32;93.08;100355.09;10461108;28;20037;-81
2022/01/05 04:28:31;;;;;;;10.40;6.25;;;;;;;3.04;92.73;100294.28;10458475;28;20750;-83
2022/01/05 04:33:32;;;;;;;12.73;6.38;;;;;;;3.65;92.83;100381.31;10457929;28;20033;-82
2022/01/05 04:38:33;;;;;;;19.20;6.45;;;;;;;2.65;92.81;100230.84;10443426;28;20075;-81
2022/01/05 04:43:34;;;;;;;9.70;6.53;;;;;;;3.71;92.37;100410.66;10418235;28;20049;-81
2022/01/05 04:48:35;;;;;;;11.82;6.63;;;;;;;3.24;92.39;100368.84;10458887;28;20289;-80
2022/01/05 04:53:36;;;;;;;12.07;6.50;;;;;;;3.10;92.91;100345.44;10459118;28;20047;-77
2022/01/05 04:58:37;;;;;;;11.40;6.53;;;;;;;3.14;93.07;100360.00;10446730;28;20041;-79
2022/01/05 05:03:38;;;;;;;14.57;7.20;;;;;;;2.50;93.48;100272.22;10417458;28;20064;-78
2022/01/05 05:08:38;;;;;;;12.45;7.50;;;;;;;3.73;93.53;100441.13;10417782;28;20052;-79
2022/01/05 05:13:39;;;;;;;12.82;7.38;;;;;;;3.81;94.07;100461.56;10417499;28;20064;-78
2022/01/05 05:18:40;;;;;;;10.43;6.65;;;;;;;3.03;93.82;100308.34;10415573;28;20060;-78
2022/01/05 05:23:41;;;;;;;11.13;6.72;;;;;;;4.00;94.09;100461.75;10414066;28;20505;-79
2022/01/05 05:28:42;;;;;;;14.10;6.53;;;;;;;3.98;93.81;100447.03;10443125;28;20051;-83
2022/01/05 05:33:42;;;;;;;9.93;6.00;;;;;;;3.00;93.53;100281.53;10435235;28;20072;-84
2022/01/05 05:38:43;;;;;;;11.98;6.40;;;;;;;2.67;93.04;100221.09;10429819;28;20033;-85
2022/01/05 05:43:45;;;;;;;9.70;6.20;;;;;;;4.04;93.19;100438.69;10435800;28;20520;-79
2022/01/05 05:48:46;;;;;;;14.07;6.40;;;;;;;3.24;92.93;100318.97;10455210;28;20069;-76
2022/01/05 05:53:47;;;;;;;9.10;6.28;;;;;;;4.01;93.05;100471.31;10443860;28;20046;-77
2022/01/05 05:58:48;;;;;;;11.57;6.05;;;;;;;2.50;93.30;100196.19;10447139;28;20045;-84
2022/01/05 06:03:49;;;;;;;9.82;6.30;;;;;;;3.82;93.27;100403.59;10455800;28;20094;-90
2022/01/05 06:08:50;;;;;;;10.43;6.68;;;;;;;4.34;93.54;100432.75;10456175;28;20450;-85
2022/01/05 06:13:52;;;;;;;9.95;7.05;;;;;;;5.29;92.64;100516.09;10454438;28;20504;-84
2022/01/05 06:18:53;;;;;;;10.63;6.38;;;;;;;5.28;91.84;100474.94;10454014;28;20044;-84
2022/01/05 06:23:54;;;;;;;14.43;7.43;;;;;;;4.86;91.97;100383.66;10454651;28;20048;-84
2022/01/05 06:28:55;;;;;;;13.10;5.93;;;;;;;4.83;90.54;100317.28;10454082;28;20044;-85
2022/01/05 06:33:56;;;;;;;13.95;5.88;;;;;;;5.94;89.71;100470.91;10455807;28;20043;-84
2022/01/05 06:38:57;;;;;;;11.43;6.00;;;;;;;5.22;89.95;100323.53;10454120;28;20102;-83
2022/01/05 06:43:57;;;;;;;12.30;6.30;;;;;;;6.33;90.04;100476.25;10455520;28;20044;-84
2022/01/05 06:48:58;;;;;;;13.15;6.65;;;;;;;5.78;89.54;100401.22;10454301;28;20118;-82
2022/01/05 06:54:00;;;;;;;12.88;6.55;;;;;;;5.42;89.06;100327.06;10453668;28;20090;-83
2022/01/05 06:59:00;;;;;;;10.63;5.97;;;;;;;5.56;88.92;100339.00;10453261;28;20458;-82
2022/01/05 07:04:02;;;;;;;9.93;6.55;;;;;;;6.46;88.33;100485.72;10455044;28;20033;-82
2022/01/05 07:09:03;;;;;;;11.80;6.78;;;;;;;5.81;88.45;100388.59;10454221;28;20067;-82
2022/01/05 07:14:05;;;;;;;11.13;7.53;;;;;;;6.69;88.31;100524.06;10452845;28;20040;-82
2022/01/05 07:19:06;;;;;;;15.35;6.63;;;;;;;6.54;88.40;100510.44;10453947;28;20416;-84
2022/01/05 07:24:11;;;;;;;9.95;6.28;;;;;;;6.75;88.27;100533.25;10453314;28;20040;-82
2022/01/05 07:29:17;;;;;;;11.15;7.03;;;;;;;6.38;87.89;100462.66;10435930;28;20041;-82
2022/01/05 07:34:18;;;;;;;10.57;6.80;;;;;;;6.49;88.48;100481.00;10410593;28;20512;-79
2022/01/05 07:39:19;;;;;;;12.20;7.18;;;;;;;5.94;88.40;100344.34;10401416;28;20528;-75
2022/01/05 07:44:20;;;;;;;11.43;6.97;;;;;;;7.33;87.32;100525.28;10418235;28;20037;-76
2022/01/05 07:49:21;;;;;;;10.23;7.18;;;;;;;7.49;86.96;100532.59;10410577;28;20148;-76
2022/01/05 07:54:22;;;;;;;9.60;6.32;;;;;;;7.65;86.50;100522.25;10419143;28;20050;-77
2022/01/05 07:59:23;;;;;;;8.70;6.68;;;;;;;6.73;85.38;100345.94;10424794;28;20041;-76
2022/01/05 08:04:24;;;;;;;8.98;5.95;;;;;;;7.54;85.23;100469.56;10460767;28;20048;-77
2022/01/05 08:09:25;;;;;;;9.52;6.18;;;;;;;7.01;85.12;100381.16;10430752;28;20037;-76
2022/01/05 08:14:26;;;;;;;17.23;7.03;;;;;;;7.97;84.77;100505.97;10419873;28;20048;-77
2022/01/05 08:19:26;;;;;;;10.85;6.97;;;;;;;8.02;84.29;100465.84;10419218;28;20037;-76
2022/01/05 08:24:27;;;;;;;13.98;8.68;;;;;;;8.30;83.69;100495.75;10418763;28;20421;-78
2022/01/05 08:29:28;;;;;;;10.02;6.75;;;;;;;7.83;83.64;100423.63;10418457;28;20053;-77
2022/01/05 08:34:30;;;;;;;10.38;6.85;;;;;;;8.28;84.05;100496.88;10417440;28;20136;-77
2022/01/05 08:39:31;;;;;;;8.90;7.10;;;;;;;7.68;83.72;100415.38;10444210;28;20516;-78
2022/01/05 08:44:31;;;;;;;9.20;6.47;;;;;;;8.19;82.97;100494.13;10429608;28;20067;-77
2022/01/05 08:49:32;;;;;;;11.60;7.18;;;;;;;8.15;83.05;100465.50;10458705;28;20143;-77
2022/01/05 08:54:33;;;;;;;10.30;6.70;;;;;;;8.23;81.83;100431.19;10458459;28;20048;-77
2022/01/05 08:59:34;;;;;;;8.93;6.45;;;;;;;8.10;81.59;100368.03;10430503;28;20045;-77
2022/01/05 09:04:35;;;;;;;6.82;4.85;;;;;;;8.82;80.38;100445.59;10416864;28;20037;-77
2022/01/05 09:09:37;;;;;;;6.45;4.32;;;;;;;7.36;78.66;100209.66;10415525;28;20059;-77
2022/01/05 09:14:38;;;;;;;5.90;3.90;;;;;;;8.94;77.15;100448.84;10417603;28;20049;-77
2022/01/05 09:19:39;;;;;;;7.68;3.67;;;;;;;8.00;77.36;100315.19;10416787;28;20045;-77
2022/01/05 09:24:40;;;;;;;4.90;3.25;;;;;;;8.58;76.66;100387.97;10416626;28;20037;-77
2022/01/05 09:29:41;;;;;;;7.07;4.80;;;;;;;8.34;76.06;100322.41;10416823;28;20107;-78
2022/01/05 09:34:43;;;;;;;4.38;3.42;;;;;;;9.03;76.10;100402.84;10415015;28;20482;-77
2022/01/05 09:45:19;;;;;;;7.15;3.13;;;;;;;8.42;73.33;100258.16;10447489;28;20095;-78
2022/01/05 09:50:23;;;;;;;4.70;3.10;;;;;;;9.27;72.74;100398.69;10456963;28;20118;-77
2022/01/05 09:55:24;;;;;;;4.88;3.35;;;;;;;8.45;73.44;100260.50;10456029;28;20040;-78
2022/01/05 10:00:26;;;;;;;5.63;3.15;;;;;;;9.53;73.24;100415.38;10456611;28;20085;-77
2022/01/05 10:05:28;;;;;;;4.20;2.60;;;;;;;9.56;72.53;100433.63;10454015;28;20120;-76
2022/01/05 10:10:29;;;;;;;3.75;2.30;;;;;;;9.29;71.38;100428.53;10423410;28;20050;-76
2022/01/05 10:15:30;;;;;;;4.13;2.45;;;;;;;8.54;71.61;100340.81;10435734;28;20123;-76
2022/01/05 10:20:30;;;;;;;7.60;3.00;;;;;;;9.09;73.47;100434.06;10455788;28;20041;-76
2022/01/05 10:25:31;;;;;;;3.70;2.58;;;;;;;8.16;73.23;100253.63;10426970;28;20042;-77
2022/01/05 10:30:38;;;;;;;6.05;2.85;;;;;;;8.47;71.61;100295.59;10414121;28;20049;-76
2022/01/05 10:35:57;;;;;;;5.53;2.55;;;;;;;9.34;71.79;100400.56;10414487;28;20046;-79
2022/01/05 10:40:58;;;;;;;3.10;2.33;;;;;;;7.69;72.19;100132.31;10441108;28;20040;-80
2022/01/05 10:45:58;;;;;;;3.80;2.38;;;;;;;9.34;72.34;100394.44;10451781;28;20107;-82
2022/01/05 10:51:06;;;;;;;2.92;2.08;;;;;;;9.29;70.72;100386.94;10446107;28;20049;-78
2022/01/05 10:56:06;;;;;;;3.75;2.47;;;;;;;9.02;71.82;100305.81;10443132;28;20194;-77
2022/01/05 11:01:27;;;;;;;3.20;2.00;;;;;;;9.17;71.14;100347.63;10441125;28;20048;-77
2022/01/05 11:06:29;;;;;;;3.55;1.90;;;;;;;8.04;72.58;100193.19;10442280;28;20041;-79
2022/01/05 11:11:37;;;;;;;4.00;1.70;;;;;;;9.38;71.62;100401.88;10439015;28;20059;-77
2022/01/05 11:16:40;;;;;;;4.95;2.13;;;;;;;8.42;72.33;100239.63;10438916;28;20048;-74
2022/01/05 11:21:56;;;;;;;4.47;1.80;;;;;;;9.01;71.54;100333.31;10451021;28;20049;-75
2022/01/05 11:26:58;;;;;;;3.10;1.40;;;;;;;8.91;70.90;100288.41;10454984;28;20033;-77
2022/01/05 11:31:59;;;;;;;3.13;1.27;;;;;;;8.19;70.63;100113.09;10457883;28;20110;-76
2022/01/05 11:37:03;;;;;;;3.40;1.60;;;;;;;9.73;69.02;100362.09;10454488;28;20566;-76
2022/01/05 11:42:18;;;;;;;3.25;1.60;;;;;;;9.08;68.47;100272.56;10454184;28;20068;-77
2022/01/05 11:47:23;;;;;;;4.05;1.63;;;;;;;9.08;69.12;100252.19;10456955;28;20497;-76
2022/01/05 11:53:12;;;;;;;2.92;1.15;;;;;;;9.71;69.58;100362.22;10457648;28;20045;-76
2022/01/05 11:58:21;;;;;;;6.22;1.85;;;;;;;9.52;69.79;100358.03;10447993;28;20041;-76
2022/01/05 12:03:59;;;;;;;2.70;1.77;;;;;;;9.43;69.97;100359.00;10460546;28;20447;-76
2022/01/05 12:09:03;;;;;;;4.60;1.88;;;;;;;8.53;70.48;100244.66;10423486;28;20136;-77
2022/01/05 12:14:08;;;;;;;4.03;1.77;;;;;;;9.06;70.55;100372.56;10418742;28;20607;-77
2022/01/05 12:19:14;;;;;;;6.28;1.85;;;;;;;8.91;71.74;100380.25;10419519;28;20050;-78
2022/01/05 12:24:16;;;;;;;4.80;1.98;;;;;;;8.86;72.00;100379.91;10432061;28;20055;-76
2022/01/05 12:29:29;;;;;;;7.25;1.90;;;;;;;8.78;71.47;100366.63;10460438;28;20052;-74
2022/01/05 12:34:55;;;;;;;3.07;1.77;;;;;;;8.76;70.62;100363.28;10429113;28;20038;-75
2022/01/05 12:39:59;;;;;;;5.43;1.90;;;;;;;8.79;71.50;100387.63;10451091;28;20040;-75
2022/01/05 12:45:00;;;;;;;7.57;2.97;;;;;;;8.72;72.87;100367.25;10451810;28;20474;-75
2022/01/05 12:50:17;;;;;;;12.07;4.80;;;;;;;8.44;72.83;100338.25;10444267;28;20064;-77
2022/01/05 12:55:18;;;;;;;12.35;4.20;;;;;;;8.07;74.03;100304.00;10445894;28;20041;-76
2022/01/05 13:00:19;;;;;;;10.07;3.00;;;;;;;7.99;73.72;100312.72;10452579;28;20044;-75
2022/01/05 13:05:28;;;;;;;7.10;2.90;;;;;;;8.19;73.74;100353.88;10439049;28;20493;-75
2022/01/05 13:10:29;;;;;;;5.40;3.08;;;;;;;8.31;74.23;100388.88;10416739;28;20099;-75
2022/01/05 13:15:30;;;;;;;15.18;3.30;;;;;;;7.03;74.53;100217.25;10427627;28;20088;-73
2022/01/05 13:20:31;;;;;;;7.30;3.35;;;;;;;7.93;75.10;100382.94;10431658;28;20049;-76
2022/01/05 13:25:33;;;;;;;8.25;2.80;;;;;;;7.59;75.87;100355.44;10418801;28;20059;-73
2022/01/05 13:30:36;;;;;;;16.88;5.88;;;;;;;7.11;75.89;100307.16;10429027;28;20080;-76
2022/01/05 13:35:41;;;;;;;14.90;5.18;;;;;;;7.72;76.57;100411.47;10449290;28;20036;-77
2022/01/05 13:40:44;;;;;;;17.60;5.72;;;;;;;6.80;77.48;100278.38;10455003;28;20053;-75
2022/01/05 13:45:50;;;;;;;20.20;5.70;;;;;;;7.23;77.55;100369.38;10454126;28;20051;-77
2022/01/05 13:51:07;;;;;;;17.92;4.63;;;;;;;6.54;78.19;100290.56;10449888;28;20059;-76
2022/01/05 13:56:11;;;;;;;21.83;6.57;;;;;;;6.77;78.92;100376.38;10446158;28;20056;-75
2022/01/05 14:01:18;;;;;;;12.07;5.67;;;;;;;6.66;80.26;100381.81;10442001;28;20593;-75
2022/01/05 14:06:24;;;;;;;12.63;5.65;;;;;;;6.91;79.49;100432.31;10442084;28;20044;-78
2022/01/05 14:11:26;;;;;;;15.20;7.20;;;;;;;5.81;80.14;100284.94;10444694;28;20139;-77
2022/01/05 14:16:33;;;;;;;59.05;28.00;;;;;;;6.63;80.73;100445.44;10449906;28;20049;-76
2022/01/05 14:21:37;;;;;;;58.63;26.05;;;;;;;5.82;81.72;100345.41;10446863;28;20546;-76
2022/01/05 14:26:39;;;;;;;30.97;13.80;;;;;;;5.82;81.35;100363.88;10443237;28;20575;-76
2022/01/05 14:31:43;;;;;;;23.00;10.23;;;;;;;4.90;82.47;100250.81;10446207;28;20128;-76
2022/01/05 14:36:47;;;;;;;25.02;9.82;;;;;;;4.67;82.87;100239.66;10446428;28;20037;-76
2022/01/05 14:41:59;;;;;;;15.02;8.10;;;;;;;5.43;82.28;100384.88;10450030;28;20040;-75
2022/01/05 14:47:04;;;;;;;17.42;10.13;;;;;;;4.28;83.44;100223.69;10438477;28;20475;-75
2022/01/05 14:52:06;;;;;;;;;;;;;;;5.68;81.88;100446.81;10442084;28;20060;-76
2022/01/05 14:57:17;;;;;;;12.73;8.65;;;;;;;5.01;83.75;100361.28;10438464;28;19927;-78
2022/01/05 15:02:18;;;;;;;9.85;6.18;;;;;;;5.52;83.68;100462.28;10420960;28;20128;-78
2022/01/05 15:07:19;;;;;;;6.05;3.70;;;;;;;4.75;83.79;100344.25;10423561;28;20080;-78
2022/01/05 15:12:20;;;;;;;5.68;2.85;;;;;;;5.45;84.32;100459.34;10436519;28;20140;-79
2022/01/05 15:17:21;;;;;;;7.72;3.35;;;;;;;4.86;84.61;100345.97;10436479;28;20041;-76
2022/01/05 15:22:22;;;;;;;8.30;3.70;;;;;;;5.38;84.72;100445.03;10421522;28;20045;-78
2022/01/05 15:27:23;;;;;;;6.15;3.60;;;;;;;4.50;84.64;100290.25;10444878;28;20037;-77
2022/01/05 15:32:24;;;;;;;5.60;3.55;;;;;;;4.61;85.20;100310.38;10419197;28;20048;-77
2022/01/05 15:37:25;;;;;;;7.85;4.40;;;;;;;4.08;84.91;100230.63;10429872;28;20493;-77
2022/01/05 15:42:26;;;;;;;5.63;3.90;;;;;;;4.62;85.46;100306.78;10428307;28;20057;-77
2022/01/05 15:47:27;;;;;;;5.55;3.88;;;;;;;4.87;85.46;100335.31;10429929;28;20049;-77
2022/01/05 15:52:28;;;;;;;5.95;3.75;;;;;;;4.35;85.67;100251.13;10424844;28;20064;-76
2022/01/05 15:57:49;;;;;;;7.38;3.60;;;;;;;5.58;85.22;100456.47;10433802;28;20111;-77
2022/01/05 16:02:50;;;;;;;5.80;3.22;;;;;;;5.56;85.29;100437.31;10441059;28;20120;-73
2022/01/05 16:07:51;;;;;;;5.30;3.40;;;;;;;5.54;85.84;100430.53;10444845;28;20512;-76
2022/01/05 16:12:53;;;;;;;5.97;3.75;;;;;;;5.28;85.83;100391.47;10427226;28;20069;-75
2022/01/05 16:17:54;;;;;;;4.50;3.17;;;;;;;5.15;85.17;100372.44;10458138;28;20044;-73
2022/01/05 16:22:55;;;;;;;5.05;3.17;;;;;;;5.00;85.95;100370.16;10449177;28;20069;-76
2022/01/05 16:27:56;;;;;;;6.22;3.08;;;;;;;4.57;85.90;100315.06;10418663;28;20073;-75
2022/01/05 16:32:57;;;;;;;6.07;3.20;;;;;;;3.75;86.77;100196.66;10418975;28;20079;-74
2022/01/05 16:38:00;;;;;;;4.00;2.58;;;;;;;3.88;87.10;100239.34;10418428;28;20049;-72
2022/01/05 16:43:01;;;;;;;4.30;2.75;;;;;;;4.66;86.92;100379.22;10417662;28;20127;-75
2022/01/05 16:48:05;;;;;;;8.05;2.83;;;;;;;4.53;86.77;100376.81;10451797;28;20152;-75
2022/01/05 16:53:06;;;;;;;6.53;3.23;;;;;;;4.15;87.28;100367.66;10457485;28;20074;-76
2022/01/05 17:03:29;;;;;;;7.13;3.33;;;;;;;3.83;87.48;100342.22;10452693;28;20377;-74
2022/01/05 17:08:31;;;;;;;5.00;2.70;;;;;;;4.04;88.13;100372.97;10448223;28;20550;-74
2022/01/05 17:13:32;;;;;;;7.88;3.83;;;;;;;3.48;88.01;100276.78;10433423;28;20124;-77
2022/01/05 17:18:33;;;;;;;5.90;4.03;;;;;;;3.95;89.06;100340.41;10416122;28;20393;-76
2022/01/05 17:23:34;;;;;;;5.32;3.35;;;;;;;3.84;87.98;100304.47;10415941;28;20045;-76
2022/01/05 17:28:35;;;;;;;9.02;3.35;;;;;;;4.01;88.17;100321.50;10416492;28;20529;-77
2022/01/05 17:33:36;;;;;;;5.10;3.38;;;;;;;4.50;88.08;100379.69;10416829;28;20049;-76
2022/01/05 17:38:37;;;;;;;5.82;3.80;;;;;;;4.54;87.83;100368.78;10415067;28;20033;-76
2022/01/05 17:43:40;;;;;;;5.25;3.38;;;;;;;4.77;88.02;100387.06;10416548;28;20195;-76
2022/01/05 17:48:43;;;;;;;7.88;3.83;;;;;;;4.86;88.27;100388.09;10415495;28;20053;-76
2022/01/05 17:53:45;;;;;;;7.72;3.90;;;;;;;4.94;88.27;100397.00;10439332;28;20048;-77
2022/01/05 17:58:46;;;;;;;6.05;3.90;;;;;;;4.89;88.38;100380.75;10452516;28;20064;-75
2022/01/05 18:03:47;;;;;;;7.78;3.90;;;;;;;4.57;88.45;100305.38;10452688;28;20045;-74
2022/01/05 18:08:48;;;;;;;7.90;4.50;;;;;;;5.13;88.08;100383.09;10454618;28;20045;-76
2022/01/05 18:13:49;;;;;;;6.30;4.10;;;;;;;5.08;87.86;100371.28;10454206;28;20098;-76
2022/01/05 18:18:50;;;;;;;7.32;4.30;;;;;;;4.32;88.08;100243.50;10453717;28;20068;-74
2022/01/05 18:23:51;;;;;;;5.97;3.75;;;;;;;4.84;88.44;100319.78;10452288;28;20057;-74
2022/01/05 18:28:55;;;;;;;6.78;4.20;;;;;;;5.17;88.40;100367.84;10452765;28;20047;-75
2022/01/05 18:33:55;;;;;;;9.98;4.70;;;;;;;4.94;88.10;100354.88;10448784;28;20045;-76
2022/01/05 18:38:58;;;;;;;6.32;4.15;;;;;;;4.32;88.51;100254.03;10424286;28;20037;-76
2022/01/05 18:43:59;;;;;;;8.07;4.68;;;;;;;5.18;88.65;100380.06;10413895;28;20091;-76
2022/01/05 18:49:01;;;;;;;8.00;4.43;;;;;;;5.12;89.23;100351.66;10414159;28;20057;-75
2022/01/05 18:54:04;;;;;;;9.45;4.97;;;;;;;4.78;88.97;100293.97;10420182;28;20037;-76
2022/01/05 18:59:05;;;;;;;8.45;4.53;;;;;;;5.13;88.72;100366.47;10452118;28;20052;-76
2022/01/05 19:04:06;;;;;;;6.70;4.32;;;;;;;5.15;89.18;100372.44;10418470;28;20064;-76
2022/01/05 19:09:07;;;;;;;6.57;4.38;;;;;;;4.74;89.15;100297.84;10412710;28;20072;-76
2022/01/05 19:14:10;;;;;;;7.47;4.65;;;;;;;5.11;89.15;100360.50;10441520;28;20051;-76
2022/01/05 19:19:11;;;;;;;9.63;4.93;;;;;;;5.11;89.12;100349.94;10453866;28;20493;-76
2022/01/05 19:24:14;;;;;;;7.45;4.65;;;;;;;5.00;89.49;100329.84;10437593;28;20044;-76
2022/01/05 19:29:15;;;;;;;7.68;4.13;;;;;;;4.90;88.99;100313.16;10424434;28;20041;-76
2022/01/05 19:34:17;;;;;;;7.53;4.75;;;;;;;4.99;89.14;100344.78;10412028;28;20029;-76
2022/01/05 19:39:18;;;;;;;9.55;4.28;;;;;;;5.12;89.61;100351.66;10414877;28;20136;-76
2022/01/05 19:44:19;;;;;;;5.72;3.75;;;;;;;4.45;88.79;100252.97;10440688;28;20741;-76
2022/01/05 19:49:20;;;;;;;7.05;4.25;;;;;;;4.85;88.63;100289.88;10458139;28;20689;-76
2022/01/05 19:54:27;;;;;;;6.35;4.05;;;;;;;5.07;88.15;100309.06;10460376;28;20049;-75
2022/01/05 19:59:39;;;;;;;6.28;3.72;;;;;;;5.24;88.13;100353.22;10446752;28;20080;-77
2022/01/05 20:04:40;;;;;;;5.35;3.67;;;;;;;5.24;87.97;100340.88;10450714;28;20128;-77
2022/01/05 20:09:43;;;;;;;7.63;4.35;;;;;;;5.15;87.80;100322.41;10441168;28;20076;-74
2022/01/05 20:14:43;;;;;;;7.78;4.22;;;;;;;4.84;88.02;100284.72;10427627;28;20463;-76
2022/01/05 20:19:44;;;;;;;6.78;4.00;;;;;;;4.00;87.26;100138.44;10429479;28;20132;-77
2022/01/05 20:24:45;;;;;;;6.07;3.70;;;;;;;4.79;87.70;100300.94;10425015;28;20131;-77
2022/01/05 20:29:46;;;;;;;9.38;3.97;;;;;;;4.60;87.68;100285.03;10430893;28;20405;-77
2022/01/05 20:34:47;;;;;;;6.38;3.80;;;;;;;4.61;88.01;100292.81;10419733;28;20045;-77
2022/01/05 20:39:49;;;;;;;7.03;4.10;;;;;;;4.61;88.29;100305.09;10422697;28;20052;-77
2022/01/05 20:44:50;;;;;;;7.85;3.88;;;;;;;4.77;88.32;100321.28;10437179;28;20085;-76
2022/01/05 20:49:51;;;;;;;7.15;3.95;;;;;;;4.86;88.19;100333.63;10431636;28;20140;-77
2022/01/05 20:54:52;;;;;;;5.93;3.97;;;;;;;4.40;87.20;100242.88;10427518;28;20037;-75
2022/01/05 20:59:53;;;;;;;6.47;4.07;;;;;;;4.78;88.05;100320.28;10421616;28;20048;-75
2022/01/05 21:04:54;;;;;;;6.65;4.18;;;;;;;4.97;87.77;100362.53;10435138;28;20041;-74
2022/01/05 21:09:55;;;;;;;11.25;3.88;;;;;;;4.92;87.57;100356.81;10423391;28;20041;-74
2022/01/05 21:14:57;;;;;;;9.48;4.57;;;;;;;4.85;88.11;100339.88;10430656;28;20068;-75
2022/01/05 21:19:58;;;;;;;6.85;3.80;;;;;;;4.66;87.26;100287.13;10442642;28;20040;-75
2022/01/05 21:25:00;;;;;;;6.15;3.60;;;;;;;4.93;87.03;100332.13;10416167;28;20037;-75
2022/01/05 21:30:01;;;;;;;6.28;4.38;;;;;;;5.04;87.35;100344.38;10416337;28;20037;-74
2022/01/05 21:35:02;;;;;;;10.07;4.00;;;;;;;5.06;86.49;100352.19;10415673;28;20046;-74
2022/01/05 21:40:05;;;;;;;6.55;4.38;;;;;;;4.37;86.50;100260.69;10416287;28;20037;-75
2022/01/05 21:45:06;;;;;;;5.68;3.78;;;;;;;5.03;86.57;100375.16;10416002;28;20053;-74
2022/01/05 21:50:09;;;;;;;6.35;4.20;;;;;;;5.05;86.51;100382.91;10415681;28;20061;-75
2022/01/05 21:55:11;;;;;;;7.25;4.60;;;;;;;4.95;86.14;100361.81;10415702;28;20037;-74
2022/01/05 22:00:13;;;;;;;7.38;4.18;;;;;;;4.68;86.56;100301.84;10414961;28;20099;-74
2022/01/05 22:05:18;;;;;;;6.68;4.03;;;;;;;4.04;86.40;100220.53;10414997;28;20048;-74
2022/01/05 22:10:20;;;;;;;7.55;4.30;;;;;;;4.72;86.43;100339.25;10415111;28;20464;-74
2022/01/05 22:15:21;;;;;;;6.70;4.05;;;;;;;4.28;87.11;100271.03;10414914;28;20084;-75
2022/01/05 22:20:22;;;;;;;5.72;3.60;;;;;;;4.72;86.87;100355.03;10414472;28;20041;-74
2022/01/05 22:25:23;;;;;;;12.02;4.15;;;;;;;4.40;87.02;100313.00;10414377;28;20120;-74
2022/01/05 22:30:24;;;;;;;10.02;3.78;;;;;;;4.30;86.68;100305.06;10413690;28;20041;-75
2022/01/05 22:35:25;;;;;;;7.30;4.10;;;;;;;4.08;86.83;100295.53;10414259;28;20065;-75
2022/01/05 22:40:26;;;;;;;6.05;3.70;;;;;;;3.60;87.47;100240.81;10414645;28;20546;-75
2022/01/05 22:45:27;;;;;;;7.45;4.38;;;;;;;3.91;87.62;100296.91;10414742;28;20075;-75
2022/01/05 22:50:28;;;;;;;6.57;3.78;;;;;;;4.15;86.75;100335.28;10413694;28;20120;-74
2022/01/05 22:55:29;;;;;;;8.00;4.07;;;;;;;3.37;87.08;100224.28;10413476;28;20106;-75
2022/01/05 23:00:39;;;;;;;6.30;3.33;;;;;;;4.30;86.96;100382.16;10413476;28;20041;-74
2022/01/05 23:05:42;;;;;;;6.93;4.13;;;;;;;3.42;87.02;100245.75;10413453;28;20034;-74
2022/01/05 23:10:44;;;;;;;6.97;3.80;;;;;;;3.85;87.02;100307.94;10413356;28;20521;-75
2022/01/05 23:15:45;;;;;;;8.25;4.15;;;;;;;3.93;87.05;100320.44;10412851;28;20068;-75
2022/01/05 23:20:46;;;;;;;6.57;4.55;;;;;;;4.23;87.17;100369.66;10418565;28;20115;-75
2022/01/05 23:25:48;;;;;;;6.45;4.07;;;;;;;3.49;87.00;100218.03;10420183;28;20064;-74
2022/01/05 23:30:50;;;;;;;6.28;4.05;;;;;;;3.43;87.30;100205.41;10421527;28;20128;-75
2022/01/05 23:35:54;;;;;;;8.50;4.30;;;;;;;3.42;86.90;100199.31;10422127;28;20044;-74
2022/01/05 23:40:57;;;;;;;10.13;4.47;;;;;;;4.01;86.63;100278.56;10420736;28;20120;-75